首页
METAR-TAF:

METAR-TAF

机场 :

彭萨科拉, 佛罗里达州, 美国

纬度: 30-21-22N, 经度: 087-19-24W, 海拔: 9米

当前天气观测

该预报发布于51分钟前的07:56 UTC
风速4节,风向
温度 23°C
湿度 65%
气压 1018 hPa
能見度: 16.1公里
天空无云

METAR: KNPA 010756Z AUTO 36004KT 10SM CLR 23/16 A3005 RMK AO2 SLP175 T02280161

时间: 03:47 (08:47 UTC)

预报

预报有效从01日的 07点(UTC)到 02日的 07点(UTC)
风速6节,风向多变
能见度10公里或以上
天空无云
从 01日的 1300点(UTC)
风速12节,风向东南
能见度10公里或以上
少量云层高于25000英尺
从 01日的 2100点(UTC)
风速8节,风向南转南东
能见度10公里或以上
少量云层高于3000英尺
少量云层高于25000英尺
从 02日的 0200点(UTC)
风速10节,风向
能見度: 0111
少量云层高于3000英尺
散云层高于25000英尺

TAF: KNPA 0107/0207 VRB06KT 9999 SKC QNH3000INS FM011300 13012KT 9999 FEW250 QNH3002INS FM012100 15008KT 9999 FEW030 FEW250 QNH3003INS FM020200 10010KT 9999 FEW030 SCT250 QNH3003INS AUTOMATED SENSOR METWATCH 0107 TIL 0111 T20/0110Z T30/0120Z FN00225

超过4000个机场的气象观测和天气预报(METAR&TAF报告)。

可查询的气象台以黄色和红色小点在地图上表示。

将鼠标移到小点上方,可查看气象台名称。

然后点击查看天气观测和预报。

如需切换地图:点击带黑十字的绿色按钮放大地图;点击带横线的绿色按钮缩小地图;或者点击绿色箭头查看邻近地区的地图。


METAR-TAF: